Time;durP1;ratioP1;P1;durP2;ratioP2;P2;SDS_P1;SDS_P2;PMS_P1;PMS_P2;Temp;Humidity;BMP_temperature;BMP_pressure;BME280_temperature;BME280_humidity;BME280_pressure;Samples;Min_cycle;Max_cycle;Signal;HPM_P1;HPM_P2
2022/05/19 00:00:34;;;;;;;7.43;5.53;;;;;;;;;;5066756;28;20041;-65
2022/05/19 00:03:00;;;;;;;6.85;5.65;;;;;;;;;;5074293;28;20036;-65
2022/05/19 00:05:26;;;;;;;5.88;5.38;;;;;;;;;;5074594;28;20036;-65
2022/05/19 00:07:51;;;;;;;6.20;5.60;;;;;;;;;;5071400;28;20040;-65
2022/05/19 00:10:17;;;;;;;5.85;5.47;;;;;;;;;;5072232;28;20113;-65
2022/05/19 00:12:43;;;;;;;5.82;5.20;;;;;;;;;;5074709;28;20036;-65
2022/05/19 00:15:11;;;;;;;6.07;5.47;;;;;;;;;;5071969;28;20041;-65
2022/05/19 00:17:38;;;;;;;6.03;5.30;;;;;;;;;;5071206;28;20428;-65
2022/05/19 00:20:05;;;;;;;5.65;5.25;;;;;;;;;;5076348;28;20282;-65
2022/05/19 00:22:30;;;;;;;6.00;5.55;;;;;;;;;;5074822;28;20115;-65
2022/05/19 00:24:56;;;;;;;5.90;5.50;;;;;;;;;;5070490;28;20112;-65
2022/05/19 00:27:21;;;;;;;5.72;5.32;;;;;;;;;;5065860;28;20032;-65
2022/05/19 00:29:47;;;;;;;5.93;5.45;;;;;;;;;;5075193;28;20040;-65
2022/05/19 00:32:16;;;;;;;;;;;;;;;;;;5072668;28;20480;-65
2022/05/19 00:34:42;;;;;;;6.30;5.75;;;;;;;;;;5071814;28;19923;-65
2022/05/19 00:37:07;;;;;;;5.90;5.50;;;;;;;;;;5073417;28;20044;-65
2022/05/19 00:39:35;;;;;;;5.93;5.40;;;;;;;;;;5073911;28;20121;-65
2022/05/19 00:44:45;;;;;;;5.65;5.25;;;;;;;;;;5068919;28;20090;-65
2022/05/19 00:47:19;;;;;;;6.32;5.70;;;;;;;;;;5073674;28;20067;-65
2022/05/19 00:49:46;;;;;;;6.18;5.57;;;;;;;;;;5065231;28;20037;-65
2022/05/19 00:52:36;;;;;;;6.05;5.45;;;;;;;;;;5065279;28;20093;-65
2022/05/19 00:55:07;;;;;;;8.55;5.82;;;;;;;;;;5079968;28;20041;-65
2022/05/19 00:57:37;;;;;;;5.95;5.45;;;;;;;;;;5074937;28;20072;-65
2022/05/19 01:00:29;;;;;;;6.22;5.53;;;;;;;;;;5071387;28;20032;-65
2022/05/19 01:03:00;;;;;;;6.10;5.70;;;;;;;;;;5066702;28;20056;-65
2022/05/19 01:05:56;;;;;;;5.75;5.30;;;;;;;;;;5071321;28;20433;-65
2022/05/19 01:08:34;;;;;;;6.10;5.60;;;;;;;;;;5071601;28;20037;-65
2022/05/19 01:11:02;;;;;;;5.63;5.23;;;;;;;;;;5072137;28;20036;-65
2022/05/19 01:13:31;;;;;;;5.63;5.20;;;;;;;;;;5073634;28;20043;-65
2022/05/19 01:15:58;;;;;;;6.30;5.75;;;;;;;;;;5071140;28;20036;-65
2022/05/19 01:18:26;;;;;;;6.88;5.50;;;;;;;;;;5071160;28;20037;-65
2022/05/19 01:20:51;;;;;;;5.60;5.20;;;;;;;;;;5073798;28;20487;-65
2022/05/19 01:23:28;;;;;;;6.10;5.68;;;;;;;;;;5071859;28;20041;-65
2022/05/19 01:25:58;;;;;;;6.05;5.50;;;;;;;;;;5067484;28;20162;-65
2022/05/19 01:28:25;;;;;;;6.93;6.03;;;;;;;;;;5062792;28;20043;-65
2022/05/19 01:30:50;;;;;;;5.95;5.45;;;;;;;;;;5068190;28;20048;-65
2022/05/19 01:33:16;;;;;;;6.10;5.28;;;;;;;;;;5069595;28;20041;-65
2022/05/19 01:35:42;;;;;;;5.85;5.38;;;;;;;;;;5069954;28;20041;-65
2022/05/19 01:38:24;;;;;;;6.40;5.82;;;;;;;;;;5070955;28;20081;-65
2022/05/19 01:41:29;;;;;;;6.30;5.70;;;;;;;;;;5073188;28;20047;-65
2022/05/19 01:44:13;;;;;;;5.75;5.35;;;;;;;;;;5069561;28;20056;-65
2022/05/19 01:46:40;;;;;;;6.30;5.80;;;;;;;;;;5064327;28;20043;-65
2022/05/19 01:49:25;;;;;;;6.43;5.93;;;;;;;;;;5071280;28;20027;-65
2022/05/19 01:51:56;;;;;;;8.02;6.03;;;;;;;;;;5068115;28;20040;-65
2022/05/19 01:54:35;;;;;;;6.40;5.70;;;;;;;;;;5068404;28;20032;-65
2022/05/19 01:57:06;;;;;;;;;;;;;;;;;;5072753;28;20051;-65
2022/05/19 01:59:48;;;;;;;6.38;5.88;;;;;;;;;;5069496;28;19999;-65
2022/05/19 02:02:24;;;;;;;6.30;5.70;;;;;;;;;;5068843;28;20068;-65
2022/05/19 02:04:49;;;;;;;5.70;5.30;;;;;;;;;;5069763;28;20041;-65
2022/05/19 02:07:17;;;;;;;7.45;5.57;;;;;;;;;;5071861;28;20037;-65
2022/05/19 02:09:49;;;;;;;6.28;5.65;;;;;;;;;;5071228;28;20035;-65
2022/05/19 02:12:15;;;;;;;6.30;5.70;;;;;;;;;;5069830;28;20032;-66
2022/05/19 02:14:55;;;;;;;6.20;5.53;;;;;;;;;;5069445;28;20114;-65
2022/05/19 02:17:23;;;;;;;8.80;5.60;;;;;;;;;;5072039;28;20032;-65
2022/05/19 02:19:54;;;;;;;6.40;5.70;;;;;;;;;;5069931;28;20033;-65
2022/05/19 02:22:24;;;;;;;5.97;5.40;;;;;;;;;;5066675;28;20085;-65
2022/05/19 02:25:26;;;;;;;6.20;5.80;;;;;;;;;;5082258;28;20081;-65
2022/05/19 02:28:01;;;;;;;6.47;5.75;;;;;;;;;;5069469;28;20699;-65
2022/05/19 02:30:30;;;;;;;6.10;5.68;;;;;;;;;;5069692;28;20444;-65
2022/05/19 02:32:56;;;;;;;6.47;5.80;;;;;;;;;;5059292;28;20752;-65
2022/05/19 02:35:23;;;;;;;6.60;6.00;;;;;;;;;;5077478;28;20094;-65
2022/05/19 02:37:49;;;;;;;6.45;5.80;;;;;;;;;;5067321;28;20045;-65
2022/05/19 02:40:17;;;;;;;6.40;5.90;;;;;;;;;;5064518;28;20377;-65
2022/05/19 02:42:42;;;;;;;6.43;5.82;;;;;;;;;;5066028;28;20040;-65
2022/05/19 02:45:10;;;;;;;6.75;6.07;;;;;;;;;;5068247;28;20077;-66
2022/05/19 02:47:35;;;;;;;6.00;5.60;;;;;;;;;;5065844;28;20040;-65
2022/05/19 02:50:02;;;;;;;6.90;6.30;;;;;;;;;;5070644;28;20044;-65
2022/05/19 02:52:28;;;;;;;6.80;6.20;;;;;;;;;;5068348;28;20032;-65
2022/05/19 02:54:54;;;;;;;6.47;5.80;;;;;;;;;;5065216;28;20039;-65
2022/05/19 02:57:19;;;;;;;7.70;6.13;;;;;;;;;;5071469;28;20039;-65
2022/05/19 02:59:45;;;;;;;6.50;6.00;;;;;;;;;;5069089;28;20047;-65
2022/05/19 03:02:10;;;;;;;6.60;6.00;;;;;;;;;;5067098;28;20039;-65
2022/05/19 03:04:36;;;;;;;8.13;6.18;;;;;;;;;;5070121;28;20044;-65
2022/05/19 03:07:01;;;;;;;7.43;6.07;;;;;;;;;;5071865;28;20111;-65
2022/05/19 03:09:27;;;;;;;8.02;6.10;;;;;;;;;;5067730;28;20089;-65
2022/05/19 03:11:52;;;;;;;6.97;6.18;;;;;;;;;;5064433;28;20028;-65
2022/05/19 03:14:18;;;;;;;7.38;6.45;;;;;;;;;;5067291;28;20407;-65
2022/05/19 03:16:44;;;;;;;6.68;6.00;;;;;;;;;;5067705;28;20043;-65
2022/05/19 03:19:09;;;;;;;6.72;6.13;;;;;;;;;;5068030;28;20028;-65
2022/05/19 03:21:36;;;;;;;6.85;6.15;;;;;;;;;;5065642;28;20052;-65
2022/05/19 03:24:02;;;;;;;7.25;6.68;;;;;;;;;;5067134;28;20032;-64
2022/05/19 03:26:28;;;;;;;6.50;6.00;;;;;;;;;;5069409;28;20078;-63
2022/05/19 03:28:56;;;;;;;6.70;6.13;;;;;;;;;;5068882;28;20060;-63
2022/05/19 03:31:22;;;;;;;6.65;6.05;;;;;;;;;;5070448;28;20064;-63
2022/05/19 03:33:48;;;;;;;7.57;5.90;;;;;;;;;;5069232;28;20036;-63
2022/05/19 03:36:13;;;;;;;6.82;6.10;;;;;;;;;;5065844;28;20059;-63
2022/05/19 03:38:39;;;;;;;6.90;5.88;;;;;;;;;;5064373;28;20112;-63
2022/05/19 03:41:05;;;;;;;6.47;5.97;;;;;;;;;;5067564;28;20085;-63
2022/05/19 03:43:31;;;;;;;6.93;6.43;;;;;;;;;;5066677;28;20032;-63
2022/05/19 03:45:56;;;;;;;6.88;6.30;;;;;;;;;;5068797;28;20028;-63
2022/05/19 03:48:22;;;;;;;6.85;6.13;;;;;;;;;;5066942;28;20104;-62
2022/05/19 03:50:49;;;;;;;6.60;6.10;;;;;;;;;;5068799;28;20101;-63
2022/05/19 03:53:15;;;;;;;7.03;6.30;;;;;;;;;;5066335;28;20049;-63
2022/05/19 03:55:41;;;;;;;6.53;5.93;;;;;;;;;;5068783;28;20033;-63
2022/05/19 03:58:06;;;;;;;7.10;6.47;;;;;;;;;;5074437;28;20448;-63
2022/05/19 04:00:33;;;;;;;6.40;6.00;;;;;;;;;;5076768;28;20043;-63
2022/05/19 04:02:59;;;;;;;7.00;6.30;;;;;;;;;;5069543;28;20037;-63
2022/05/19 04:05:26;;;;;;;7.28;6.00;;;;;;;;;;5069212;28;20036;-63
2022/05/19 04:07:52;;;;;;;6.55;6.05;;;;;;;;;;5065780;28;20043;-63
2022/05/19 04:10:20;;;;;;;9.90;6.32;;;;;;;;;;5068055;28;20106;-63
2022/05/19 04:12:45;;;;;;;6.97;6.03;;;;;;;;;;5067109;28;20036;-63
2022/05/19 04:15:12;;;;;;;7.63;6.45;;;;;;;;;;5064654;28;20041;-63
2022/05/19 04:17:39;;;;;;;7.38;5.97;;;;;;;;;;5073125;28;20116;-63
2022/05/19 04:20:07;;;;;;;7.15;6.50;;;;;;;;;;5067715;28;20032;-63
2022/05/19 04:22:34;;;;;;;6.75;6.25;;;;;;;;;;5071943;28;20778;-63
2022/05/19 04:25:00;;;;;;;6.65;6.15;;;;;;;;;;5067442;28;20036;-63
2022/05/19 04:27:30;;;;;;;7.43;6.65;;;;;;;;;;5068559;28;20043;-63
2022/05/19 04:29:56;;;;;;;6.63;6.07;;;;;;;;;;5067831;28;20496;-63
2022/05/19 04:32:22;;;;;;;8.65;6.40;;;;;;;;;;5062798;28;20032;-63
2022/05/19 04:34:48;;;;;;;6.60;6.00;;;;;;;;;;5071693;28;20101;-65
2022/05/19 04:37:14;;;;;;;7.05;6.40;;;;;;;;;;5054896;28;20037;-66
2022/05/19 04:39:40;;;;;;;9.70;6.43;;;;;;;;;;5068571;28;20602;-66
2022/05/19 04:42:06;;;;;;;8.85;6.15;;;;;;;;;;5069329;28;20107;-66
2022/05/19 04:44:32;;;;;;;8.38;6.45;;;;;;;;;;5070625;28;20051;-66
2022/05/19 04:46:58;;;;;;;6.88;6.10;;;;;;;;;;5066222;28;20511;-66
2022/05/19 04:49:23;;;;;;;6.72;6.18;;;;;;;;;;5067284;28;20507;-66
2022/05/19 04:51:49;;;;;;;6.70;6.03;;;;;;;;;;5071458;28;20032;-66
2022/05/19 04:54:15;;;;;;;9.02;6.53;;;;;;;;;;5072115;28;20039;-66
2022/05/19 04:56:42;;;;;;;7.28;6.50;;;;;;;;;;5072773;28;20391;-66
2022/05/19 04:59:13;;;;;;;8.10;6.57;;;;;;;;;;5070293;28;20078;-66
2022/05/19 05:01:47;;;;;;;7.15;6.55;;;;;;;;;;5075232;28;20028;-66
2022/05/19 05:04:14;;;;;;;6.68;6.18;;;;;;;;;;5067770;28;20033;-66
2022/05/19 05:06:40;;;;;;;7.20;6.60;;;;;;;;;;5070505;28;20025;-66
2022/05/19 05:09:06;;;;;;;6.97;6.38;;;;;;;;;;5067031;28;20029;-66
2022/05/19 05:11:32;;;;;;;7.25;6.50;;;;;;;;;;5074855;28;20453;-66
2022/05/19 05:13:57;;;;;;;7.40;6.80;;;;;;;;;;5070869;28;20116;-66
2022/05/19 05:16:24;;;;;;;6.97;6.45;;;;;;;;;;5070760;28;20872;-67
2022/05/19 05:18:50;;;;;;;6.95;6.35;;;;;;;;;;5074947;28;20033;-66
2022/05/19 05:21:15;;;;;;;7.80;7.00;;;;;;;;;;5071007;28;20035;-66
2022/05/19 05:23:41;;;;;;;9.10;7.28;;;;;;;;;;5072806;28;20491;-66
2022/05/19 05:26:08;;;;;;;8.15;7.35;;;;;;;;;;5082448;28;20067;-66
2022/05/19 05:28:35;;;;;;;7.97;7.10;;;;;;;;;;5071185;28;20107;-66
2022/05/19 05:31:00;;;;;;;8.38;7.07;;;;;;;;;;5070510;28;20506;-66
2022/05/19 05:33:27;;;;;;;8.77;7.30;;;;;;;;;;5067586;28;20040;-66
2022/05/19 05:35:52;;;;;;;7.97;7.28;;;;;;;;;;5075848;28;20502;-66
2022/05/19 05:38:18;;;;;;;7.18;6.57;;;;;;;;;;5070089;28;20036;-66
2022/05/19 05:40:45;;;;;;;8.68;6.85;;;;;;;;;;5070338;28;20048;-66
2022/05/19 05:43:13;;;;;;;11.23;7.00;;;;;;;;;;5069079;28;20107;-66
2022/05/19 05:45:40;;;;;;;7.60;7.00;;;;;;;;;;5070700;28;20040;-66
2022/05/19 05:48:06;;;;;;;8.07;7.05;;;;;;;;;;5070924;28;20262;-66
2022/05/19 05:50:32;;;;;;;7.32;6.72;;;;;;;;;;5063628;28;20049;-66
2022/05/19 05:52:58;;;;;;;8.23;7.35;;;;;;;;;;5069787;28;20040;-66
2022/05/19 05:55:27;;;;;;;8.15;7.35;;;;;;;;;;5079408;28;20032;-66
2022/05/19 05:57:53;;;;;;;7.97;7.28;;;;;;;;;;5075922;28;20480;-66
2022/05/19 06:00:19;;;;;;;9.23;7.18;;;;;;;;;;5070140;28;20042;-66
2022/05/19 06:02:45;;;;;;;9.55;7.40;;;;;;;;;;5067526;28;20055;-66
2022/05/19 06:05:12;;;;;;;7.82;7.15;;;;;;;;;;5073388;28;20027;-66
2022/05/19 06:07:38;;;;;;;11.02;7.40;;;;;;;;;;5069961;28;20032;-66
2022/05/19 06:10:04;;;;;;;10.85;6.47;;;;;;;;;;5069613;28;20229;-66
2022/05/19 06:12:30;;;;;;;8.15;6.72;;;;;;;;;;5067391;28;20494;-66
2022/05/19 06:14:56;;;;;;;8.25;6.93;;;;;;;;;;5074496;28;20040;-66
2022/05/19 06:17:25;;;;;;;7.15;6.50;;;;;;;;;;5070656;28;20442;-66
2022/05/19 06:19:51;;;;;;;8.27;6.60;;;;;;;;;;5069787;28;20040;-66
2022/05/19 06:22:18;;;;;;;11.65;6.65;;;;;;;;;;5069533;28;20307;-66
2022/05/19 06:24:44;;;;;;;10.20;6.72;;;;;;;;;;5079285;28;20024;-66
2022/05/19 06:27:10;;;;;;;8.50;6.38;;;;;;;;;;5077250;28;20039;-66
2022/05/19 06:29:36;;;;;;;7.60;6.35;;;;;;;;;;5060990;28;20095;-67
2022/05/19 06:32:02;;;;;;;6.88;6.15;;;;;;;;;;5076017;28;20070;-66
2022/05/19 06:34:27;;;;;;;6.63;6.13;;;;;;;;;;5073902;28;20195;-66
2022/05/19 06:36:53;;;;;;;7.32;6.50;;;;;;;;;;5068132;28;20399;-66
2022/05/19 06:39:19;;;;;;;8.80;6.30;;;;;;;;;;5076035;28;20035;-67
2022/05/19 06:42:03;;;;;;;6.20;5.70;;;;;;;;;;5074772;28;20032;-67
2022/05/19 06:44:38;;;;;;;7.10;6.40;;;;;;;;;;5069904;28;20085;-67
2022/05/19 06:47:15;;;;;;;7.00;5.93;;;;;;;;;;5065244;28;20035;-67
2022/05/19 06:49:50;;;;;;;11.82;6.30;;;;;;;;;;5069231;28;20036;-67
2022/05/19 06:52:23;;;;;;;7.60;6.00;;;;;;;;;;5069075;28;20036;-67
2022/05/19 06:54:51;;;;;;;7.05;6.45;;;;;;;;;;5066828;28;20128;-67
2022/05/19 06:57:18;;;;;;;8.88;6.10;;;;;;;;;;5076803;28;20403;-67
2022/05/19 06:59:44;;;;;;;7.05;6.50;;;;;;;;;;5064235;28;20064;-67
2022/05/19 07:02:10;;;;;;;9.30;6.97;;;;;;;;;;5069467;28;20548;-67
2022/05/19 07:04:37;;;;;;;8.23;6.35;;;;;;;;;;5066417;28;20119;-67
2022/05/19 07:07:04;;;;;;;6.53;6.03;;;;;;;;;;5077404;28;20085;-67
2022/05/19 07:09:31;;;;;;;6.88;6.20;;;;;;;;;;5069667;28;20032;-67
2022/05/19 07:11:57;;;;;;;8.77;5.90;;;;;;;;;;5070876;28;20043;-67
2022/05/19 07:14:23;;;;;;;8.13;6.15;;;;;;;;;;5069846;28;20032;-67
2022/05/19 07:16:49;;;;;;;6.38;5.97;;;;;;;;;;5070179;28;20037;-67
2022/05/19 07:22:00;;;;;;;8.32;6.55;;;;;;;;;;5070364;28;20039;-67
2022/05/19 07:24:26;;;;;;;7.10;6.07;;;;;;;;;;5082132;28;20032;-67
2022/05/19 07:26:54;;;;;;;6.50;5.97;;;;;;;;;;5071298;28;20032;-67
2022/05/19 07:29:21;;;;;;;;;;;;;;;;;;5070136;28;20032;-67
2022/05/19 07:31:48;;;;;;;6.30;5.80;;;;;;;;;;5065612;28;19912;-67
2022/05/19 07:34:16;;;;;;;6.43;6.00;;;;;;;;;;5073898;28;20110;-67
2022/05/19 07:36:42;;;;;;;6.90;6.30;;;;;;;;;;5070279;28;20483;-67
2022/05/19 07:39:09;;;;;;;7.00;6.20;;;;;;;;;;5069728;28;20052;-67
2022/05/19 07:41:35;;;;;;;6.53;5.97;;;;;;;;;;5068681;28;20032;-67
2022/05/19 07:44:03;;;;;;;6.80;6.15;;;;;;;;;;5073944;28;20107;-67
2022/05/19 07:46:29;;;;;;;6.95;6.25;;;;;;;;;;5069463;28;20047;-67
2022/05/19 07:48:56;;;;;;;6.80;6.10;;;;;;;;;;5060417;28;20028;-67
2022/05/19 07:51:22;;;;;;;6.75;6.03;;;;;;;;;;5072292;28;20024;-67
2022/05/19 07:53:49;;;;;;;6.38;5.78;;;;;;;;;;5072183;28;20028;-67
2022/05/19 07:56:15;;;;;;;6.45;5.95;;;;;;;;;;5074989;28;20035;-67
2022/05/19 07:58:40;;;;;;;6.28;5.70;;;;;;;;;;5070312;28;20261;-67
2022/05/19 08:01:07;;;;;;;6.95;6.40;;;;;;;;;;5079102;28;20553;-67
2022/05/19 08:03:33;;;;;;;10.38;6.30;;;;;;;;;;5068969;28;20178;-67
2022/05/19 08:06:00;;;;;;;8.38;6.20;;;;;;;;;;5072340;28;20020;-67
2022/05/19 08:08:26;;;;;;;6.53;5.88;;;;;;;;;;5073926;28;20058;-67
2022/05/19 08:10:53;;;;;;;10.95;6.00;;;;;;;;;;5069101;28;20123;-67
2022/05/19 08:16:03;;;;;;;6.47;5.97;;;;;;;;;;5075664;28;20032;-67
2022/05/19 08:18:29;;;;;;;6.47;5.93;;;;;;;;;;5067680;28;20081;-68
2022/05/19 08:20:58;;;;;;;7.72;5.97;;;;;;;;;;5068914;28;20131;-67
2022/05/19 08:23:30;;;;;;;6.85;6.30;;;;;;;;;;5066873;28;20037;-67
2022/05/19 08:25:57;;;;;;;7.07;5.90;;;;;;;;;;5083731;28;20028;-67
2022/05/19 08:28:29;;;;;;;8.52;5.93;;;;;;;;;;5068593;28;20040;-67
2022/05/19 08:31:03;;;;;;;6.97;6.10;;;;;;;;;;5068416;28;20044;-67
2022/05/19 08:33:29;;;;;;;8.25;5.60;;;;;;;;;;5083462;28;20403;-67
2022/05/19 08:35:55;;;;;;;7.15;5.47;;;;;;;;;;5076933;28;20115;-67
2022/05/19 08:38:21;;;;;;;6.03;5.47;;;;;;;;;;5072619;28;20128;-67
2022/05/19 08:40:50;;;;;;;7.03;5.60;;;;;;;;;;5072994;28;20044;-67
2022/05/19 08:43:19;;;;;;;7.50;5.22;;;;;;;;;;5079053;28;20130;-67
2022/05/19 08:45:50;;;;;;;6.35;5.85;;;;;;;;;;5069166;28;20120;-67
2022/05/19 08:48:21;;;;;;;7.68;6.03;;;;;;;;;;5077651;28;20050;-67
2022/05/19 08:50:53;;;;;;;7.60;5.95;;;;;;;;;;5072164;28;20407;-67
2022/05/19 08:53:19;;;;;;;6.97;5.57;;;;;;;;;;5068578;28;20064;-67
2022/05/19 08:55:50;;;;;;;6.75;5.50;;;;;;;;;;5087320;28;20503;-67
2022/05/19 08:58:36;;;;;;;6.50;5.28;;;;;;;;;;5075302;28;20048;-67
2022/05/19 09:01:12;;;;;;;5.95;5.45;;;;;;;;;;5072225;28;20392;-67
2022/05/19 09:03:51;;;;;;;6.55;5.38;;;;;;;;;;5075299;28;20141;-67
2022/05/19 09:06:33;;;;;;;7.32;5.35;;;;;;;;;;5080298;28;20040;-67
2022/05/19 09:08:59;;;;;;;5.95;5.40;;;;;;;;;;5071688;28;20062;-68
2022/05/19 09:11:39;;;;;;;5.40;4.90;;;;;;;;;;5070288;28;20040;-68
2022/05/19 09:14:20;;;;;;;5.40;4.93;;;;;;;;;;5081210;28;20399;-68
2022/05/19 09:16:47;;;;;;;6.30;5.22;;;;;;;;;;5052148;28;20102;-68
2022/05/19 09:19:34;;;;;;;6.03;5.50;;;;;;;;;;5068259;28;20446;-68
2022/05/19 09:22:14;;;;;;;7.30;5.50;;;;;;;;;;5078139;28;20044;-68
2022/05/19 09:24:44;;;;;;;5.63;4.90;;;;;;;;;;5072577;28;20471;-68
2022/05/19 09:27:09;;;;;;;5.57;5.07;;;;;;;;;;5073255;28;20124;-68
2022/05/19 09:29:55;;;;;;;5.18;4.72;;;;;;;;;;5073526;28;20174;-68
2022/05/19 09:32:37;;;;;;;7.18;5.30;;;;;;;;;;5074001;28;20032;-68
2022/05/19 09:35:26;;;;;;;6.30;5.28;;;;;;;;;;5058731;28;20423;-68
2022/05/19 09:38:16;;;;;;;5.65;5.15;;;;;;;;;;5056476;28;20457;-68
2022/05/19 09:40:46;;;;;;;7.38;5.30;;;;;;;;;;5078239;28;20044;-68
2022/05/19 09:43:48;;;;;;;7.50;5.47;;;;;;;;;;5064946;28;20029;-68
2022/05/19 09:46:16;;;;;;;8.05;4.93;;;;;;;;;;5070386;28;20039;-68
2022/05/19 09:48:48;;;;;;;5.43;4.90;;;;;;;;;;5075715;28;20032;-68
2022/05/19 09:51:17;;;;;;;5.43;4.95;;;;;;;;;;5072196;28;20067;-68
2022/05/19 09:53:49;;;;;;;6.65;5.30;;;;;;;;;;5070515;28;20036;-68
2022/05/19 09:56:19;;;;;;;7.30;5.40;;;;;;;;;;5081304;28;20135;-68
2022/05/19 09:58:48;;;;;;;5.60;5.07;;;;;;;;;;5075668;28;20033;-68
2022/05/19 10:01:42;;;;;;;5.50;4.60;;;;;;;;;;5070985;28;20097;-68
2022/05/19 10:04:47;;;;;;;5.43;4.90;;;;;;;;;;5061090;28;20044;-68
2022/05/19 10:07:23;;;;;;;6.03;4.93;;;;;;;;;;5010543;28;20059;-68
2022/05/19 10:09:51;;;;;;;5.55;4.75;;;;;;;;;;5008528;28;20050;-68
2022/05/19 10:12:42;;;;;;;6.32;4.80;;;;;;;;;;5009580;28;20274;-68
2022/05/19 10:15:14;;;;;;;5.95;5.15;;;;;;;;;;5010510;28;20132;-68
2022/05/19 10:17:50;;;;;;;5.43;4.88;;;;;;;;;;5008469;28;20112;-68
2022/05/19 10:20:30;;;;;;;8.13;5.10;;;;;;;;;;5009573;28;20505;-68
2022/05/19 10:23:34;;;;;;;6.68;5.05;;;;;;;;;;5010889;28;20046;-68
2022/05/19 10:26:15;;;;;;;8.65;4.70;;;;;;;;;;5009711;28;20231;-68
2022/05/19 10:32:19;;;;;;;5.53;4.53;;;;;;;;;;4973721;28;20114;-68
2022/05/19 10:34:58;;;;;;;10.20;4.85;;;;;;;;;;4969065;28;20117;-68
2022/05/19 10:37:23;;;;;;;7.18;4.50;;;;;;;;;;4973636;28;20042;-69
2022/05/19 10:40:13;;;;;;;5.20;4.70;;;;;;;;;;4974823;28;20065;-68
2022/05/19 10:42:58;;;;;;;7.60;5.05;;;;;;;;;;4992600;28;20137;-68
2022/05/19 10:45:36;;;;;;;6.30;5.05;;;;;;;;;;5026522;28;20068;-68
2022/05/19 10:48:36;;;;;;;5.53;4.95;;;;;;;;;;5018073;28;20412;-68
2022/05/19 10:51:11;;;;;;;5.10;4.65;;;;;;;;;;5024939;28;20493;-68
2022/05/19 10:54:08;;;;;;;6.70;4.40;;;;;;;;;;5020033;28;20042;-68
2022/05/19 10:56:58;;;;;;;5.47;4.38;;;;;;;;;;5031950;28;20088;-68
2022/05/19 10:59:39;;;;;;;5.85;4.53;;;;;;;;;;5025282;28;20580;-68
2022/05/19 11:02:34;;;;;;;9.27;4.85;;;;;;;;;;5028660;28;20044;-68
2022/05/19 11:05:29;;;;;;;6.63;5.03;;;;;;;;;;5029205;28;20033;-68
2022/05/19 11:08:05;;;;;;;6.00;5.07;;;;;;;;;;5038090;28;20055;-68
2022/05/19 11:10:36;;;;;;;5.93;5.32;;;;;;;;;;5068367;28;20044;-68
2022/05/19 11:13:26;;;;;;;7.70;5.20;;;;;;;;;;5075112;28;20559;-68
2022/05/19 11:16:11;;;;;;;6.88;5.00;;;;;;;;;;5067912;28;20085;-68
2022/05/19 11:18:54;;;;;;;6.20;4.97;;;;;;;;;;5068289;28;20396;-68
2022/05/19 11:22:00;;;;;;;5.40;4.72;;;;;;;;;;5073805;28;20043;-68
2022/05/19 11:27:35;;;;;;;9.35;4.90;;;;;;;;;;5070597;28;20110;-68
2022/05/19 11:30:14;;;;;;;6.38;4.90;;;;;;;;;;5081466;28;20043;-69
2022/05/19 11:32:42;;;;;;;5.45;4.72;;;;;;;;;;5064190;28;20063;-69
2022/05/19 11:35:46;;;;;;;6.30;4.93;;;;;;;;;;5067382;28;20067;-69
2022/05/19 11:38:21;;;;;;;8.18;5.20;;;;;;;;;;5077471;28;20039;-68
2022/05/19 11:41:04;;;;;;;5.75;5.03;;;;;;;;;;5063244;28;20032;-68
2022/05/19 11:43:55;;;;;;;6.90;5.03;;;;;;;;;;5069335;28;20103;-68
2022/05/19 11:46:25;;;;;;;4.88;4.50;;;;;;;;;;5075850;28;20029;-68
2022/05/19 11:55:16;;;;;;;5.93;5.18;;;;;;;;;;5074572;28;20487;-68
2022/05/19 11:57:55;;;;;;;7.70;5.82;;;;;;;;;;5073260;28;20219;-69
2022/05/19 12:00:30;;;;;;;9.18;5.80;;;;;;;;;;5065822;28;20040;-68
2022/05/19 12:03:08;;;;;;;6.07;5.35;;;;;;;;;;5081834;28;20039;-69
2022/05/19 12:05:39;;;;;;;9.45;6.20;;;;;;;;;;5063992;28;20086;-68
2022/05/19 12:08:17;;;;;;;6.68;6.07;;;;;;;;;;5068738;28;20403;-69
2022/05/19 12:11:09;;;;;;;6.72;5.90;;;;;;;;;;5070662;28;20037;-69
2022/05/19 12:13:36;;;;;;;6.75;6.05;;;;;;;;;;5073880;28;20499;-68
2022/05/19 12:16:10;;;;;;;7.07;6.30;;;;;;;;;;5067770;28;20039;-68
2022/05/19 12:18:43;;;;;;;9.45;6.00;;;;;;;;;;5072108;28;20043;-68
2022/05/19 12:21:09;;;;;;;8.80;6.25;;;;;;;;;;5071882;28;20035;-69
2022/05/19 12:23:40;;;;;;;6.68;5.93;;;;;;;;;;5069799;28;20044;-69
2022/05/19 12:26:13;;;;;;;6.72;6.05;;;;;;;;;;5072181;28;20211;-68
2022/05/19 12:28:44;;;;;;;7.35;5.75;;;;;;;;;;5074816;28;20098;-69
2022/05/19 12:34:31;;;;;;;6.40;5.75;;;;;;;;;;5068595;28;20040;-69
2022/05/19 12:37:15;;;;;;;6.78;6.15;;;;;;;;;;5078361;28;20299;-69
2022/05/19 12:40:24;;;;;;;7.45;5.85;;;;;;;;;;5078880;28;20124;-69
2022/05/19 12:43:06;;;;;;;8.23;6.32;;;;;;;;;;5040353;28;20040;-68
2022/05/19 12:45:41;;;;;;;6.70;6.03;;;;;;;;;;5074195;28;20437;-68
2022/05/19 12:48:06;;;;;;;7.15;5.53;;;;;;;;;;5066486;28;20038;-68
2022/05/19 12:50:50;;;;;;;7.00;6.00;;;;;;;;;;5068734;28;20040;-68
2022/05/19 12:53:59;;;;;;;7.18;5.90;;;;;;;;;;5065607;28;20688;-68
2022/05/19 12:56:40;;;;;;;6.45;5.45;;;;;;;;;;5073873;28;20495;-68
2022/05/19 12:59:27;;;;;;;6.90;6.30;;;;;;;;;;5068401;28;20032;-68
2022/05/19 13:01:57;;;;;;;6.97;5.97;;;;;;;;;;5068621;28;20037;-69
2022/05/19 13:04:29;;;;;;;9.55;5.68;;;;;;;;;;5068241;28;20060;-68
2022/05/19 13:07:05;;;;;;;6.28;5.78;;;;;;;;;;5074497;28;20032;-68
2022/05/19 13:09:33;;;;;;;7.50;6.00;;;;;;;;;;5061918;28;20032;-68
2022/05/19 13:12:08;;;;;;;7.40;6.15;;;;;;;;;;5069417;28;20044;-69
2022/05/19 13:14:41;;;;;;;7.05;6.07;;;;;;;;;;5080499;28;20043;-68
2022/05/19 13:17:13;;;;;;;8.75;6.03;;;;;;;;;;5072508;28;20033;-68
2022/05/19 13:19:41;;;;;;;8.15;6.15;;;;;;;;;;5071767;28;20047;-68
2022/05/19 13:22:10;;;;;;;8.13;6.30;;;;;;;;;;5074670;28;20036;-69
2022/05/19 13:24:39;;;;;;;6.78;6.18;;;;;;;;;;5081220;28;20170;-69
2022/05/19 13:32:39;;;;;;;6.53;5.80;;;;;;;;;;5075142;28;20024;-69
2022/05/19 13:35:12;;;;;;;6.43;5.82;;;;;;;;;;5073133;28;20033;-68
2022/05/19 13:37:41;;;;;;;6.47;5.85;;;;;;;;;;5071300;28;20441;-68
2022/05/19 13:40:12;;;;;;;7.55;5.35;;;;;;;;;;5074110;28;20278;-68
2022/05/19 13:42:38;;;;;;;6.55;5.82;;;;;;;;;;5091282;22;20714;-67
2022/05/19 13:45:05;;;;;;;7.07;5.80;;;;;;;;;;5073027;28;20040;-67
2022/05/19 13:47:32;;;;;;;7.90;5.90;;;;;;;;;;5075114;28;20037;-67
2022/05/19 13:50:09;;;;;;;6.20;5.70;;;;;;;;;;5064791;28;20043;-67
2022/05/19 13:52:42;;;;;;;6.97;5.95;;;;;;;;;;5080986;28;20032;-67
2022/05/19 13:55:26;;;;;;;7.00;5.80;;;;;;;;;;5072618;28;20103;-67
2022/05/19 13:57:53;;;;;;;7.80;5.55;;;;;;;;;;5071530;28;20028;-67
2022/05/19 14:00:20;;;;;;;5.95;5.45;;;;;;;;;;5078466;28;20043;-67
2022/05/19 14:02:47;;;;;;;7.05;5.30;;;;;;;;;;5090190;28;20373;-67
2022/05/19 14:05:35;;;;;;;7.13;5.47;;;;;;;;;;5085765;28;20063;-67
2022/05/19 14:08:06;;;;;;;7.07;5.40;;;;;;;;;;5072572;28;20094;-67
2022/05/19 14:10:44;;;;;;;6.75;5.70;;;;;;;;;;5085299;28;20059;-67
2022/05/19 14:13:12;;;;;;;6.18;5.47;;;;;;;;;;5063197;28;20394;-67
2022/05/19 14:15:42;;;;;;;5.93;5.43;;;;;;;;;;5064633;28;20036;-67
2022/05/19 14:18:10;;;;;;;7.13;5.50;;;;;;;;;;5061724;28;20055;-67
2022/05/19 14:20:36;;;;;;;5.60;5.20;;;;;;;;;;5087200;28;20027;-67
2022/05/19 14:23:06;;;;;;;7.00;5.70;;;;;;;;;;5085815;28;20047;-66
2022/05/19 14:25:37;;;;;;;7.88;5.80;;;;;;;;;;5072425;28;20498;-67
2022/05/19 14:28:32;;;;;;;7.07;5.30;;;;;;;;;;5075381;28;20483;-66
2022/05/19 14:31:07;;;;;;;6.18;5.28;;;;;;;;;;5084278;28;20059;-69
2022/05/19 14:33:40;;;;;;;5.78;5.18;;;;;;;;;;5085585;28;20020;-68
2022/05/19 14:36:11;;;;;;;6.50;5.90;;;;;;;;;;5078095;28;20446;-68
2022/05/19 14:38:44;;;;;;;7.43;5.95;;;;;;;;;;5090236;28;20070;-68
2022/05/19 14:44:10;;;;;;;6.35;5.80;;;;;;;;;;5072876;28;20081;-68
2022/05/19 14:46:48;;;;;;;7.85;6.13;;;;;;;;;;5065263;28;20032;-68
2022/05/19 14:49:17;;;;;;;7.07;5.85;;;;;;;;;;5072892;28;20119;-68
2022/05/19 14:51:46;;;;;;;;;;;;;;;;;;5084895;28;20154;-68
2022/05/19 14:54:13;;;;;;;7.13;5.47;;;;;;;;;;5078700;28;19935;-68
2022/05/19 14:56:48;;;;;;;11.25;6.05;;;;;;;;;;5071452;28;20047;-68
2022/05/19 14:59:25;;;;;;;7.72;5.80;;;;;;;;;;5078637;28;20452;-68
2022/05/19 15:01:51;;;;;;;7.07;5.65;;;;;;;;;;5068690;28;20036;-67
2022/05/19 15:04:17;;;;;;;8.23;6.20;;;;;;;;;;5068763;28;20036;-67
2022/05/19 15:06:44;;;;;;;5.85;5.20;;;;;;;;;;5070936;28;20395;-67
2022/05/19 15:09:10;;;;;;;7.65;5.10;;;;;;;;;;5082690;28;20521;-67
2022/05/19 15:11:35;;;;;;;5.90;5.40;;;;;;;;;;5089357;28;20426;-67
2022/05/19 15:14:01;;;;;;;8.45;5.80;;;;;;;;;;5085340;28;20110;-68
2022/05/19 15:16:27;;;;;;;9.32;5.80;;;;;;;;;;5076754;28;20032;-67
2022/05/19 15:18:54;;;;;;;6.65;6.00;;;;;;;;;;5067564;28;20043;-67
2022/05/19 15:21:20;;;;;;;13.43;6.78;;;;;;;;;;5073228;28;20092;-67
2022/05/19 15:23:47;;;;;;;10.40;6.53;;;;;;;;;;5069998;28;20102;-67
2022/05/19 15:26:13;;;;;;;12.25;6.88;;;;;;;;;;5069722;28;20032;-67
2022/05/19 15:28:42;;;;;;;7.50;6.50;;;;;;;;;;5070329;28;20044;-67
2022/05/19 15:31:10;;;;;;;6.57;6.05;;;;;;;;;;5079603;28;20452;-68
2022/05/19 15:33:36;;;;;;;7.45;6.13;;;;;;;;;;5088756;28;20394;-67
2022/05/19 15:36:02;;;;;;;7.13;5.57;;;;;;;;;;5078675;28;20113;-68
2022/05/19 15:38:27;;;;;;;8.25;5.68;;;;;;;;;;5077087;28;20355;-67
2022/05/19 15:40:53;;;;;;;8.13;5.72;;;;;;;;;;5088817;28;20287;-67